createdAt,value
2018-09-21T00:00:27.831Z,66.73
2018-09-21T00:01:32.853Z,67.96
2018-09-21T00:02:37.994Z,67.67
2018-09-21T00:03:47.701Z,67.29
2018-09-21T00:04:53.000Z,66.75
2018-09-21T00:05:57.893Z,67.21
2018-09-21T00:07:02.927Z,67.31
2018-09-21T00:08:07.929Z,67.20
2018-09-21T00:09:14.067Z,67.58
2018-09-21T00:10:18.874Z,66.92
2018-09-21T00:11:23.486Z,67.58
2018-09-21T00:12:28.697Z,67.87
2018-09-21T00:13:33.230Z,67.82
2018-09-21T00:14:39.273Z,67.24
2018-09-21T00:15:45.462Z,67.40
2018-09-21T00:16:51.385Z,66.89
2018-09-21T00:17:57.866Z,67.04
2018-09-21T00:19:05.222Z,67.65
2018-09-21T00:20:10.370Z,67.61
2018-09-21T00:21:17.135Z,67.53
2018-09-21T00:22:26.681Z,67.40
2018-09-21T00:23:31.946Z,67.40
2018-09-21T00:24:36.800Z,68.04
2018-09-21T00:25:41.419Z,68.12
2018-09-21T00:26:46.686Z,67.87
2018-09-21T00:27:51.879Z,68.19
2018-09-21T00:28:57.695Z,68.21
2018-09-21T00:30:02.310Z,68.62
2018-09-21T00:31:07.352Z,68.74
2018-09-21T00:32:11.873Z,69.00
2018-09-21T00:33:16.329Z,68.38
2018-09-21T00:34:21.749Z,68.58
2018-09-21T00:35:26.528Z,68.93
2018-09-21T00:36:31.352Z,68.40
2018-09-21T00:37:36.329Z,69.21
2018-09-21T00:38:42.504Z,68.92
2018-09-21T00:39:53.756Z,69.00
2018-09-21T00:40:59.552Z,68.60
2018-09-21T00:42:04.494Z,68.20
2018-09-21T00:43:10.445Z,68.80
2018-09-21T00:44:15.587Z,69.35
2018-09-21T00:45:20.126Z,68.90
2018-09-21T00:46:24.715Z,69.79
2018-09-21T00:47:29.287Z,69.46
2018-09-21T00:48:34.045Z,69.38
2018-09-21T00:49:38.562Z,69.36
2018-09-21T00:50:43.456Z,70.02
2018-09-21T00:51:48.013Z,70.23
2018-09-21T00:52:52.549Z,70.23
2018-09-21T00:53:56.965Z,70.09
2018-09-21T00:55:03.055Z,69.90
2018-09-21T00:56:09.651Z,70.04
2018-09-21T00:57:15.056Z,70.11
2018-09-21T00:58:23.148Z,69.84
2018-09-21T00:59:29.638Z,70.30
2018-09-21T01:00:36.996Z,70.22
2018-09-21T01:01:41.980Z,70.18
2018-09-21T01:02:46.438Z,70.19
2018-09-21T01:03:53.295Z,70.60
2018-09-21T01:04:57.742Z,70.03
2018-09-21T01:06:07.342Z,70.77
2018-09-21T01:07:14.920Z,70.63
2018-09-21T01:08:20.374Z,71.29
2018-09-21T01:09:26.772Z,70.66
2018-09-21T01:10:33.645Z,71.58
2018-09-21T01:11:38.874Z,70.82
2018-09-21T01:12:43.634Z,70.79
2018-09-21T01:13:48.834Z,71.50
2018-09-21T01:14:55.586Z,71.40
2018-09-21T01:16:03.720Z,70.83
2018-09-21T01:17:09.235Z,71.11
2018-09-21T01:18:15.421Z,71.08
2018-09-21T01:19:23.345Z,71.01
2018-09-21T01:20:30.819Z,70.84
2018-09-21T01:21:38.578Z,71.56
2018-09-21T01:22:46.409Z,71.50
2018-09-21T01:23:54.405Z,72.34
2018-09-21T01:24:59.456Z,72.95
2018-09-21T01:26:04.446Z,72.96
2018-09-21T01:27:09.773Z,72.85
2018-09-21T01:28:14.572Z,72.86
2018-09-21T01:29:23.728Z,72.07
2018-09-21T01:30:30.636Z,71.26
2018-09-21T01:31:37.681Z,71.01
2018-09-21T01:32:43.407Z,70.76
2018-09-21T01:33:49.885Z,70.24
2018-09-21T01:34:56.569Z,69.76
2018-09-21T01:36:03.484Z,69.37
2018-09-21T01:37:09.684Z,69.24
2018-09-21T01:38:16.769Z,67.87
2018-09-21T01:39:21.395Z,68.75
2018-09-21T01:40:26.405Z,68.68
2018-09-21T01:41:31.183Z,68.70
2018-09-21T01:42:35.704Z,67.59
2018-09-21T01:43:40.164Z,67.76
2018-09-21T01:44:44.601Z,69.03
2018-09-21T01:45:49.654Z,68.55
2018-09-21T01:46:54.129Z,68.71
2018-09-21T01:47:58.833Z,68.17
2018-09-21T01:49:03.315Z,68.07
2018-09-21T01:50:08.041Z,68.26
2018-09-21T01:51:12.535Z,67.43
2018-09-21T01:52:16.986Z,67.65
2018-09-21T01:53:21.490Z,67.03
2018-09-21T01:54:25.911Z,66.57
2018-09-21T01:55:30.368Z,66.12
2018-09-21T01:56:34.901Z,65.89
2018-09-21T01:57:39.336Z,65.79
2018-09-21T01:58:43.777Z,65.75
2018-09-21T01:59:48.678Z,65.95
2018-09-21T02:00:53.092Z,65.60
2018-09-21T02:01:57.493Z,65.66
2018-09-21T02:03:01.926Z,65.94
2018-09-21T02:04:06.374Z,65.71
2018-09-21T02:05:10.775Z,65.91
2018-09-21T02:06:15.755Z,65.96
2018-09-21T02:07:20.220Z,65.89
2018-09-21T02:08:24.622Z,66.06
2018-09-21T02:09:29.063Z,66.19
2018-09-21T02:10:33.717Z,66.34
2018-09-21T02:11:38.144Z,65.93
2018-09-21T02:12:42.962Z,65.70
2018-09-21T02:13:47.410Z,65.40
2018-09-21T02:14:51.939Z,65.47
2018-09-21T02:15:56.470Z,65.54
2018-09-21T02:17:01.999Z,65.86
2018-09-21T02:18:06.410Z,65.52
2018-09-21T02:19:11.688Z,65.97
2018-09-21T02:20:16.781Z,66.42
2018-09-21T02:21:21.216Z,66.23
2018-09-21T02:22:25.726Z,65.70
2018-09-21T02:23:30.136Z,65.67
2018-09-21T02:24:34.578Z,65.97
2018-09-21T02:25:39.425Z,66.15
2018-09-21T02:26:43.836Z,65.96
2018-09-21T02:27:48.231Z,65.87
2018-09-21T02:28:52.669Z,66.45
2018-09-21T02:29:57.128Z,65.95
2018-09-21T02:31:02.002Z,66.32
2018-09-21T02:32:06.866Z,66.94
2018-09-21T02:33:11.384Z,66.69
2018-09-21T02:34:15.789Z,66.35
2018-09-21T02:35:20.202Z,66.45
2018-09-21T02:36:24.829Z,66.30
2018-09-21T02:37:29.643Z,66.64
2018-09-21T02:38:34.379Z,66.63
2018-09-21T02:39:38.807Z,66.73
2018-09-21T02:40:43.215Z,67.15
2018-09-21T02:41:47.593Z,66.81
2018-09-21T02:42:52.033Z,66.65
2018-09-21T02:43:56.468Z,67.00
2018-09-21T02:45:01.842Z,66.92
2018-09-21T02:46:06.355Z,67.56
2018-09-21T02:47:11.046Z,67.33
2018-09-21T02:48:15.477Z,67.38
2018-09-21T02:49:19.964Z,67.12
2018-09-21T02:50:24.367Z,67.15
2018-09-21T02:51:29.086Z,67.08
2018-09-21T02:52:33.613Z,66.84
2018-09-21T02:53:38.042Z,66.76
2018-09-21T02:54:42.462Z,67.21
2018-09-21T02:55:46.896Z,67.19
2018-09-21T02:56:51.401Z,66.29
2018-09-21T02:57:56.096Z,66.63
2018-09-21T02:59:00.602Z,66.46
2018-09-21T03:00:05.374Z,66.60
2018-09-21T03:01:09.794Z,66.73
2018-09-21T03:02:14.243Z,66.50
2018-09-21T03:03:18.684Z,67.46
2018-09-21T03:04:23.431Z,66.65
2018-09-21T03:05:27.847Z,66.63
2018-09-21T03:06:32.776Z,66.53
2018-09-21T03:07:37.210Z,66.48
2018-09-21T03:08:41.815Z,66.42
2018-09-21T03:09:46.252Z,66.54
2018-09-21T03:10:50.989Z,66.86
2018-09-21T03:11:55.386Z,66.89
2018-09-21T03:12:59.884Z,67.27
2018-09-21T03:14:04.304Z,67.21
2018-09-21T03:15:08.740Z,67.77
2018-09-21T03:16:13.209Z,68.40
2018-09-21T03:17:17.954Z,68.57
2018-09-21T03:18:22.374Z,68.19
2018-09-21T03:19:26.854Z,68.80
2018-09-21T03:20:31.352Z,68.21
2018-09-21T03:21:35.922Z,68.07
2018-09-21T03:22:40.379Z,69.00
2018-09-21T03:23:45.084Z,68.89
2018-09-21T03:24:49.560Z,68.94
2018-09-21T03:25:54.179Z,68.69
2018-09-21T03:26:58.625Z,68.55
2018-09-21T03:28:03.139Z,69.22
2018-09-21T03:29:07.650Z,69.20
2018-09-21T03:30:12.570Z,68.62
2018-09-21T03:31:17.018Z,68.63
2018-09-21T03:32:21.543Z,68.74
2018-09-21T03:33:26.010Z,69.06
2018-09-21T03:34:30.396Z,68.97
2018-09-21T03:35:34.799Z,68.41
2018-09-21T03:36:39.640Z,68.42
2018-09-21T03:37:44.045Z,68.40
2018-09-21T03:38:48.470Z,68.34
2018-09-21T03:39:52.875Z,68.17
2018-09-21T03:40:57.326Z,68.91
2018-09-21T03:42:01.783Z,68.84
2018-09-21T03:43:07.186Z,68.54
2018-09-21T03:44:11.614Z,68.69
2018-09-21T03:45:16.070Z,67.92
2018-09-21T03:46:20.520Z,68.82
2018-09-21T03:47:24.979Z,68.70
2018-09-21T03:48:29.578Z,68.58
2018-09-21T03:49:34.417Z,68.47
2018-09-21T03:50:38.876Z,67.83
2018-09-21T03:51:44.561Z,68.17
2018-09-21T03:52:48.957Z,67.81
2018-09-21T03:53:53.449Z,68.17
2018-09-21T03:54:57.856Z,67.79
2018-09-21T03:56:02.666Z,67.82
2018-09-21T03:57:07.097Z,68.13
2018-09-21T03:58:11.553Z,68.04
2018-09-21T03:59:16.111Z,67.87
2018-09-21T04:00:20.584Z,67.91
2018-09-21T04:01:26.271Z,68.85
2018-09-21T04:02:31.707Z,69.21
2018-09-21T04:03:36.188Z,68.81
2018-09-21T04:04:42.369Z,69.44
2018-09-21T04:05:46.811Z,69.12
2018-09-21T04:06:51.217Z,69.13
2018-09-21T04:07:55.592Z,68.68
2018-09-21T04:09:00.844Z,69.02
2018-09-21T04:10:05.514Z,69.19
2018-09-21T04:11:09.904Z,68.64
2018-09-21T04:12:14.319Z,68.64
2018-09-21T04:13:18.716Z,67.85
2018-09-21T04:14:23.157Z,68.25
2018-09-21T04:15:27.837Z,68.04
2018-09-21T04:16:32.817Z,68.76
2018-09-21T04:17:37.965Z,68.17
2018-09-21T04:18:42.408Z,68.55
2018-09-21T04:19:48.626Z,67.90
2018-09-21T04:20:53.079Z,67.76
2018-09-21T04:21:57.774Z,67.79
2018-09-21T04:23:02.875Z,68.07
2018-09-21T04:24:07.982Z,68.37
2018-09-21T04:25:12.533Z,68.76
2018-09-21T04:26:18.680Z,68.43
2018-09-21T04:27:23.102Z,68.35
2018-09-21T04:28:27.849Z,68.13
2018-09-21T04:29:32.243Z,67.73
2018-09-21T04:30:36.823Z,67.57
2018-09-21T04:31:41.297Z,67.52
2018-09-21T04:32:45.698Z,67.50
2018-09-21T04:33:53.424Z,67.31
2018-09-21T04:34:59.173Z,67.13
2018-09-21T04:36:04.655Z,67.66
2018-09-21T04:37:10.056Z,67.71
2018-09-21T04:38:14.545Z,67.69
2018-09-21T04:39:18.991Z,67.06
2018-09-21T04:40:23.456Z,66.46
2018-09-21T04:41:27.869Z,66.59
2018-09-21T04:42:32.296Z,66.14
2018-09-21T04:43:36.714Z,65.99
2018-09-21T04:44:41.145Z,65.95
2018-09-21T04:45:48.031Z,66.15
2018-09-21T04:46:52.982Z,65.90
2018-09-21T04:47:57.472Z,65.90
2018-09-21T04:49:02.007Z,65.72
2018-09-21T04:50:06.594Z,65.08
2018-09-21T04:51:12.122Z,65.21
2018-09-21T04:52:16.548Z,64.20
2018-09-21T04:53:21.209Z,64.80
2018-09-21T04:54:26.201Z,64.05
2018-09-21T04:55:32.974Z,64.34
2018-09-21T04:56:37.394Z,64.44
2018-09-21T04:57:41.810Z,63.72
2018-09-21T04:58:46.413Z,63.79
2018-09-21T04:59:50.872Z,63.71
2018-09-21T05:00:55.282Z,63.35
2018-09-21T05:01:59.705Z,63.00
2018-09-21T05:03:04.144Z,63.73
2018-09-21T05:04:08.953Z,63.18
2018-09-21T05:05:13.405Z,63.82
2018-09-21T05:06:17.818Z,62.98
2018-09-21T05:07:22.238Z,63.46
2018-09-21T05:08:26.720Z,63.21
2018-09-21T05:09:33.564Z,63.24
2018-09-21T05:10:39.214Z,63.71
2018-09-21T05:11:43.662Z,62.95
2018-09-21T05:12:49.807Z,62.65
2018-09-21T05:13:54.545Z,62.76
2018-09-21T05:14:58.957Z,63.08
2018-09-21T05:16:04.405Z,62.61
2018-09-21T05:17:08.811Z,62.89
2018-09-21T05:18:13.269Z,63.08
2018-09-21T05:19:18.307Z,62.46
2018-09-21T05:20:24.090Z,62.07
2018-09-21T05:21:29.228Z,61.95
2018-09-21T05:22:34.205Z,61.83
2018-09-21T05:23:38.813Z,61.88
2018-09-21T05:24:43.269Z,61.55
2018-09-21T05:25:47.832Z,61.68
2018-09-21T05:26:52.333Z,61.42
2018-09-21T05:27:57.495Z,61.69
2018-09-21T05:29:02.335Z,61.61
2018-09-21T05:30:06.787Z,62.10
2018-09-21T05:31:14.596Z,61.94
2018-09-21T05:32:19.183Z,61.81
2018-09-21T05:46:41.228Z,60.24
2018-09-21T05:47:47.358Z,60.21
2018-09-21T05:48:51.831Z,60.05
2018-09-21T05:49:57.212Z,60.04
2018-09-21T05:51:01.682Z,60.03
2018-09-21T05:52:06.417Z,59.84
2018-09-21T05:53:11.126Z,59.83
2018-09-21T05:54:15.561Z,59.92
2018-09-21T05:55:20.022Z,59.73
2018-09-21T05:56:25.305Z,59.93
2018-09-21T05:57:30.503Z,59.91
2018-09-21T05:58:35.459Z,59.90
2018-09-21T05:59:41.477Z,59.96
2018-09-21T06:00:46.237Z,60.12
2018-09-21T06:01:53.633Z,60.01
2018-09-21T06:02:58.758Z,59.94
2018-09-21T06:04:03.224Z,59.93
2018-09-21T06:05:08.685Z,60.07
2018-09-21T06:06:13.394Z,60.17
2018-09-21T06:07:17.889Z,60.34
2018-09-21T06:08:22.328Z,60.61
2018-09-21T06:09:26.732Z,60.64
2018-09-21T06:10:31.178Z,60.59
2018-09-21T06:11:35.963Z,60.67
2018-09-21T06:12:40.437Z,60.48
2018-09-21T06:13:45.334Z,60.45
2018-09-21T06:14:49.932Z,60.33
2018-09-21T06:15:54.975Z,60.44
2018-09-21T06:16:59.423Z,60.35
2018-09-21T06:18:03.853Z,59.84
2018-09-21T06:19:08.540Z,60.55
2018-09-21T06:20:13.561Z,60.48
2018-09-21T06:21:19.914Z,60.79
2018-09-21T06:22:25.107Z,60.39
2018-09-21T06:23:30.575Z,60.58
2018-09-21T06:24:35.794Z,60.57
2018-09-21T06:25:40.821Z,60.68
2018-09-21T06:26:45.823Z,60.54
2018-09-21T06:27:51.557Z,60.59
2018-09-21T06:28:56.791Z,60.35
2018-09-21T06:30:01.649Z,60.42
2018-09-21T06:31:06.263Z,60.30
2018-09-21T06:32:10.693Z,60.64
2018-09-21T06:33:15.394Z,60.47
2018-09-21T06:34:19.845Z,60.43
2018-09-21T06:35:24.425Z,60.62
2018-09-21T06:36:29.329Z,60.55
2018-09-21T06:37:33.769Z,60.74
2018-09-21T06:38:38.229Z,60.66
2018-09-21T06:39:42.665Z,60.77
2018-09-21T06:40:47.289Z,60.96
2018-09-21T06:41:53.515Z,60.97
2018-09-21T06:42:58.273Z,60.64
2018-09-21T06:44:03.644Z,60.56
2018-09-21T06:45:08.074Z,60.87
2018-09-21T06:46:12.621Z,60.89
2018-09-21T06:47:17.129Z,60.95
2018-09-21T06:48:21.563Z,60.86
2018-09-21T06:49:26.777Z,61.24
2018-09-21T06:50:31.227Z,60.66
2018-09-21T06:51:35.685Z,60.53
2018-09-21T06:52:40.697Z,60.86
2018-09-21T06:53:45.144Z,60.70
2018-09-21T06:54:49.774Z,60.51
2018-09-21T06:55:54.668Z,60.51
2018-09-21T06:56:59.080Z,61.33
2018-09-21T06:58:03.544Z,60.91
2018-09-21T06:59:08.836Z,60.92
2018-09-21T07:00:14.273Z,60.95
2018-09-21T07:01:19.289Z,60.94
2018-09-21T07:02:24.032Z,100.00
2018-09-21T07:03:29.005Z,100.00
2018-09-21T07:04:33.459Z,61.29
2018-09-21T07:05:38.918Z,100.00
2018-09-21T07:06:43.444Z,61.00
2018-09-21T07:07:48.529Z,61.31
2018-09-21T07:08:52.987Z,61.19
2018-09-21T07:09:58.103Z,60.99
2018-09-21T07:11:02.836Z,61.18
2018-09-21T07:12:07.805Z,100.00
2018-09-21T07:13:12.245Z,61.30
2018-09-21T07:14:17.216Z,61.28
2018-09-21T07:15:21.686Z,100.00
2018-09-21T07:16:26.220Z,100.00
2018-09-21T07:17:30.636Z,61.59
2018-09-21T07:18:37.489Z,61.61
2018-09-21T07:19:42.114Z,61.87
2018-09-21T07:20:46.586Z,61.44
2018-09-21T07:21:51.926Z,62.33
2018-09-21T07:22:57.374Z,61.58
2018-09-21T07:24:02.655Z,61.64
2018-09-21T07:25:07.910Z,61.55
2018-09-21T07:26:13.461Z,61.79
2018-09-21T07:27:18.029Z,61.74
2018-09-21T07:28:25.374Z,61.99
2018-09-21T07:29:30.583Z,61.98
2018-09-21T07:30:35.229Z,62.36
2018-09-21T07:31:40.664Z,62.28
2018-09-21T07:32:46.419Z,62.42
2018-09-21T07:33:51.993Z,62.50
2018-09-21T07:34:56.829Z,62.59
2018-09-21T07:36:02.704Z,62.87
2018-09-21T07:37:07.296Z,62.79
2018-09-21T07:38:12.042Z,63.12
2018-09-21T07:39:17.133Z,63.12
2018-09-21T07:40:22.662Z,63.07
2018-09-21T07:41:27.341Z,63.04
2018-09-21T07:42:31.926Z,63.24
2018-09-21T07:43:36.496Z,63.09
2018-09-21T07:44:41.461Z,63.32
2018-09-21T07:45:46.593Z,63.26
2018-09-21T07:46:52.599Z,63.51
2018-09-21T07:47:57.760Z,63.31
2018-09-21T07:49:02.886Z,62.83
2018-09-21T07:50:07.394Z,63.10
2018-09-21T07:51:12.516Z,63.09
2018-09-21T07:52:17.936Z,62.65
2018-09-21T07:53:23.269Z,62.37
2018-09-21T07:54:28.474Z,61.50
2018-09-21T07:55:33.570Z,61.81
2018-09-21T07:56:38.710Z,60.92
2018-09-21T07:57:44.657Z,60.66
2018-09-21T07:58:49.851Z,60.75
2018-09-21T07:59:54.908Z,60.62
2018-09-21T08:01:00.725Z,60.22
2018-09-21T08:02:05.432Z,59.39
2018-09-21T08:03:10.448Z,58.31
2018-09-21T08:04:15.327Z,58.64
2018-09-21T08:05:25.279Z,58.38
2018-09-21T08:06:29.879Z,58.69
2018-09-21T08:07:35.558Z,57.30
2018-09-21T08:08:40.256Z,56.37
2018-09-21T08:09:44.921Z,55.99
2018-09-21T08:10:49.539Z,56.08
2018-09-21T08:11:54.546Z,55.66
2018-09-21T08:12:59.356Z,55.68
2018-09-21T08:14:04.051Z,55.92
2018-09-21T08:15:09.276Z,55.22
2018-09-21T08:16:14.539Z,55.08
2018-09-21T08:17:19.932Z,55.39
2018-09-21T08:18:25.365Z,55.28
2018-09-21T08:19:31.693Z,55.15
2018-09-21T08:20:36.435Z,54.92
2018-09-21T08:21:42.661Z,54.72
2018-09-21T08:22:47.230Z,54.83
2018-09-21T08:23:52.425Z,55.14
2018-09-21T08:24:57.527Z,55.36
2018-09-21T08:26:02.021Z,55.18
2018-09-21T08:27:09.758Z,55.05
2018-09-21T08:28:15.256Z,55.10
2018-09-21T08:29:19.800Z,55.26
2018-09-21T08:30:24.329Z,55.49
2018-09-21T08:31:30.192Z,55.36
2018-09-21T08:32:35.300Z,55.76
2018-09-21T08:33:39.818Z,55.94
2018-09-21T08:34:45.312Z,55.99
2018-09-21T08:35:49.792Z,55.96
2018-09-21T08:36:54.541Z,56.01
2018-09-21T08:37:59.617Z,56.19
2018-09-21T08:39:05.076Z,56.31
2018-09-21T08:40:10.543Z,56.57
2018-09-21T08:41:16.496Z,56.86
2018-09-21T08:42:20.918Z,56.80
2018-09-21T08:43:26.368Z,56.71
2018-09-21T08:44:31.700Z,57.07
2018-09-21T08:45:36.923Z,56.89
2018-09-21T08:46:42.820Z,56.87
2018-09-21T08:47:48.020Z,56.96
2018-09-21T08:48:53.792Z,57.47
2018-09-21T08:49:58.364Z,57.18
2018-09-21T08:51:03.138Z,57.35
2018-09-21T08:52:07.753Z,57.21
2018-09-21T08:53:13.764Z,57.54
2018-09-21T08:54:19.577Z,57.35
2018-09-21T08:55:25.640Z,57.50
2018-09-21T08:56:30.589Z,57.22
2018-09-21T08:57:35.302Z,57.43
2018-09-21T08:58:39.784Z,57.40
2018-09-21T08:59:44.816Z,57.68
2018-09-21T09:00:49.501Z,57.65
2018-09-21T09:01:55.487Z,57.60
2018-09-21T09:03:00.023Z,57.76
2018-09-21T09:04:04.989Z,57.84
2018-09-21T09:05:09.644Z,57.83
2018-09-21T09:06:15.943Z,57.92
2018-09-21T09:07:21.635Z,57.83
2018-09-21T09:08:27.546Z,57.85
2018-09-21T09:09:32.075Z,57.79
2018-09-21T09:10:38.612Z,57.59
2018-09-21T09:11:45.370Z,57.60
2018-09-21T09:12:49.875Z,57.42
2018-09-21T09:13:54.364Z,57.25
2018-09-21T09:15:02.411Z,57.18
2018-09-21T09:16:07.161Z,56.96
2018-09-21T09:17:12.287Z,56.70
2018-09-21T09:18:16.733Z,56.62
2018-09-21T09:19:21.201Z,56.60
2018-09-21T09:20:26.320Z,56.67
2018-09-21T09:21:31.294Z,56.88
2018-09-21T09:22:40.091Z,56.13
2018-09-21T09:23:44.598Z,56.44
2018-09-21T09:24:51.698Z,56.05
2018-09-21T09:25:57.550Z,56.01
2018-09-21T09:27:02.189Z,56.08
2018-09-21T09:28:10.749Z,55.63
2018-09-21T09:29:17.004Z,55.68
2018-09-21T09:30:21.928Z,55.56
2018-09-21T09:31:26.624Z,55.47
2018-09-21T09:32:34.573Z,55.58
2018-09-21T09:33:40.436Z,55.57
2018-09-21T09:34:45.486Z,55.58
2018-09-21T09:35:50.361Z,55.27
2018-09-21T09:36:55.092Z,55.82
2018-09-21T09:38:00.966Z,55.51
2018-09-21T09:39:09.476Z,55.51
2018-09-21T09:40:14.537Z,55.72
2018-09-21T09:41:20.246Z,55.71
2018-09-21T09:42:24.944Z,55.80
2018-09-21T09:43:29.828Z,55.66
2018-09-21T09:44:34.476Z,55.65
2018-09-21T09:45:40.718Z,55.87
2018-09-21T09:46:46.109Z,56.29
2018-09-21T09:47:53.535Z,56.30
2018-09-21T09:48:58.336Z,56.52
2018-09-21T09:50:03.415Z,56.41
2018-09-21T09:51:09.553Z,56.69
2018-09-21T09:52:14.724Z,56.84
2018-09-21T09:53:19.614Z,56.67
2018-09-21T09:54:24.508Z,56.23
2018-09-21T09:55:29.826Z,56.77
2018-09-21T10:08:21.253Z,61.58
2018-09-21T10:09:25.877Z,61.17
2018-09-21T10:10:30.473Z,61.34
2018-09-21T10:11:34.946Z,62.28
2018-09-21T10:12:39.443Z,61.77
2018-09-21T10:13:44.467Z,61.03
2018-09-21T10:14:49.545Z,61.35
2018-09-21T10:15:55.794Z,61.33
2018-09-21T10:17:00.297Z,62.05
2018-09-21T10:18:05.258Z,61.55
2018-09-21T10:19:09.865Z,61.62
2018-09-21T10:20:14.829Z,61.75
2018-09-21T10:21:20.115Z,62.22
2018-09-21T10:22:26.266Z,61.98
2018-09-21T10:26:14.975Z,62.67
2018-09-21T10:27:38.851Z,63.14
2018-09-21T10:28:44.987Z,63.20
2018-09-21T10:29:49.970Z,63.63
2018-09-21T10:42:55.667Z,89.55
2018-09-21T10:44:01.431Z,89.50
2018-09-21T10:45:06.659Z,89.63
2018-09-21T10:46:11.188Z,89.80
2018-09-21T10:47:15.637Z,89.80
2018-09-21T10:48:20.428Z,90.04
2018-09-21T10:49:25.394Z,90.24
2018-09-21T10:50:31.174Z,89.96
2018-09-21T10:51:35.897Z,90.19
2018-09-21T10:52:41.479Z,90.21
2018-09-21T10:53:47.962Z,90.71
2018-09-21T10:54:53.237Z,90.91
2018-09-21T10:55:59.365Z,91.05
2018-09-21T10:57:05.691Z,91.64
2018-09-21T10:58:10.378Z,91.65
2018-09-21T10:59:15.622Z,91.90
2018-09-21T11:00:20.864Z,91.93
2018-09-21T11:01:26.671Z,91.88
2018-09-21T11:02:31.212Z,91.93
2018-09-21T11:03:35.728Z,91.82
2018-09-21T11:04:40.296Z,91.99
2018-09-21T11:05:44.970Z,91.85
2018-09-21T11:06:49.711Z,92.19
2018-09-21T11:07:54.531Z,92.34
2018-09-21T11:08:59.132Z,92.45
2018-09-21T11:10:03.615Z,92.28
2018-09-21T11:11:10.272Z,91.99
2018-09-21T11:12:15.494Z,91.70
2018-09-21T11:13:20.060Z,91.41
2018-09-21T11:14:25.063Z,90.90
2018-09-21T11:15:33.103Z,90.30
2018-09-21T11:16:39.119Z,90.27
2018-09-21T11:17:45.156Z,90.37
2018-09-21T11:18:49.748Z,90.37
2018-09-21T11:19:55.375Z,90.61
2018-09-21T11:21:01.093Z,90.48
2018-09-21T11:22:06.365Z,90.46
2018-09-21T11:23:10.860Z,90.67
2018-09-21T11:24:15.457Z,90.34
2018-09-21T11:25:21.635Z,89.86
2018-09-21T11:26:26.736Z,89.58
2018-09-21T11:27:32.238Z,89.55
2018-09-21T11:28:36.714Z,89.64
2018-09-21T11:29:41.242Z,89.87
2018-09-21T11:30:45.765Z,89.78
2018-09-21T11:31:50.363Z,89.59
2018-09-21T11:32:56.344Z,89.63
2018-09-21T11:34:01.546Z,89.79
2018-09-21T11:35:06.034Z,90.32
2018-09-21T11:36:10.533Z,90.54
2018-09-21T11:37:15.096Z,91.17
2018-09-21T11:38:19.609Z,91.18
2018-09-21T11:39:24.393Z,91.42
2018-09-21T11:40:28.922Z,91.45
2018-09-21T11:41:34.463Z,91.31
2018-09-21T11:42:39.644Z,91.72
2018-09-21T11:43:46.155Z,91.88
2018-09-21T11:44:50.816Z,91.72
2018-09-21T11:45:58.295Z,91.96
2018-09-21T11:47:02.831Z,91.97
2018-09-21T11:48:08.798Z,92.21
2018-09-21T11:49:14.298Z,92.19
2018-09-21T11:50:19.584Z,92.43
2018-09-21T11:51:24.118Z,92.49
2018-09-21T11:52:29.518Z,92.26
2018-09-21T11:53:33.975Z,92.10
2018-09-21T11:54:39.031Z,92.54
2018-09-21T11:55:43.620Z,92.29
2018-09-21T11:56:49.671Z,92.54
2018-09-21T11:57:56.546Z,92.12
2018-09-21T11:59:02.938Z,92.35
2018-09-21T12:00:07.870Z,92.06
2018-09-21T12:01:12.365Z,91.79
2018-09-21T12:02:17.088Z,91.75
2018-09-21T12:03:22.379Z,91.03
2018-09-21T12:04:27.494Z,91.10
2018-09-21T12:05:32.278Z,90.86
2018-09-21T12:06:37.577Z,90.97
2018-09-21T12:07:42.028Z,91.06
2018-09-21T12:08:46.473Z,90.89
2018-09-21T12:09:51.544Z,91.04
2018-09-21T12:10:57.247Z,90.44
2018-09-21T12:12:03.543Z,88.60
2018-09-21T12:13:08.828Z,88.60
2018-09-21T12:14:16.680Z,88.31
2018-09-21T12:15:21.427Z,88.98
2018-09-21T12:16:27.577Z,89.46
2018-09-21T12:17:33.638Z,89.31
2018-09-21T12:18:40.423Z,89.46
2018-09-21T12:19:45.420Z,90.14
2018-09-21T12:20:51.558Z,90.38
2018-09-21T12:21:56.447Z,90.49
2018-09-21T12:23:01.835Z,91.16
2018-09-21T12:24:07.030Z,91.55
2018-09-21T12:25:11.707Z,92.01
2018-09-21T12:26:16.856Z,92.32
2018-09-21T12:27:22.476Z,92.56
2018-09-21T12:28:27.256Z,92.89
2018-09-21T12:29:35.505Z,93.30
2018-09-21T12:30:40.007Z,93.13
2018-09-21T12:31:46.102Z,93.39
2018-09-21T12:32:50.841Z,93.29
2018-09-21T12:33:55.445Z,93.40
2018-09-21T12:34:59.998Z,93.79
2018-09-21T12:36:05.487Z,93.51
2018-09-21T12:37:10.671Z,93.41
2018-09-21T12:38:15.174Z,93.15
2018-09-21T12:39:19.663Z,93.34
2018-09-21T12:40:27.209Z,93.65
2018-09-21T12:41:32.978Z,93.74
2018-09-21T12:42:38.196Z,93.61
2018-09-21T12:43:42.900Z,94.07
2018-09-21T12:44:48.380Z,93.97
2018-09-21T12:45:54.454Z,94.05
2018-09-21T12:46:59.551Z,93.84
2018-09-21T12:48:04.125Z,93.88
2018-09-21T12:49:09.659Z,93.91
2018-09-21T12:50:14.828Z,94.02
2018-09-21T12:51:22.412Z,94.17
2018-09-21T12:52:28.544Z,94.02
2018-09-21T12:53:41.455Z,93.81
2018-09-21T12:54:47.892Z,93.66
2018-09-21T12:55:54.411Z,93.80
2018-09-21T12:56:58.905Z,92.80
2018-09-21T12:58:03.901Z,92.67
2018-09-21T12:59:08.336Z,92.48
2018-09-21T13:00:19.531Z,92.31
2018-09-21T13:01:27.137Z,90.67
2018-09-21T13:02:34.043Z,89.30
2018-09-21T13:03:39.231Z,88.61
2018-09-21T13:04:53.066Z,88.18
2018-09-21T13:06:00.281Z,87.69
2018-09-21T13:07:04.717Z,87.69
2018-09-21T13:08:09.925Z,87.93
2018-09-21T13:09:14.405Z,88.01
2018-09-21T13:10:20.338Z,87.96
2018-09-21T13:11:26.496Z,86.85
2018-09-21T13:12:32.526Z,86.97
2018-09-21T13:13:39.235Z,87.05
2018-09-21T13:14:43.935Z,87.50
2018-09-21T13:15:51.428Z,88.19
2018-09-21T13:16:55.920Z,88.49
2018-09-21T13:18:00.437Z,88.17
2018-09-21T13:19:05.175Z,87.94
2018-09-21T13:20:10.644Z,88.08
2018-09-21T13:21:21.522Z,87.81
2018-09-21T13:22:26.098Z,88.08
2018-09-21T13:23:31.560Z,88.20
2018-09-21T13:24:35.998Z,88.07
2018-09-21T13:25:40.871Z,88.19
2018-09-21T13:26:45.511Z,87.62
2018-09-21T13:27:50.053Z,87.34
2018-09-21T13:28:55.834Z,87.14
2018-09-21T13:30:00.607Z,87.38
2018-09-21T13:31:07.038Z,87.95
2018-09-21T13:32:14.290Z,88.12
2018-09-21T13:33:21.670Z,88.10
2018-09-21T13:34:26.191Z,89.25
2018-09-21T13:35:31.314Z,89.44
2018-09-21T13:36:35.846Z,88.83
2018-09-21T13:37:40.970Z,89.10
2018-09-21T13:38:45.695Z,89.63
2018-09-21T13:39:50.195Z,90.42
2018-09-21T13:40:56.196Z,90.93
2018-09-21T13:42:02.063Z,91.29
2018-09-21T13:43:06.562Z,91.81
2018-09-21T13:44:11.952Z,91.76
2018-09-21T13:45:17.171Z,91.44
2018-09-21T13:46:21.634Z,91.34
2018-09-21T13:47:38.512Z,91.32
2018-09-21T13:48:44.883Z,91.33
2018-09-21T13:49:49.374Z,91.17
2018-09-21T13:50:53.833Z,91.65
2018-09-21T13:51:58.494Z,91.59
2018-09-21T13:53:03.385Z,91.66
2018-09-21T13:54:07.886Z,91.24
2018-09-21T13:55:12.420Z,91.02
2018-09-21T13:56:17.021Z,90.90
2018-09-21T13:57:22.039Z,91.19
2018-09-21T13:58:28.228Z,91.30
2018-09-21T13:59:35.445Z,91.38
2018-09-21T14:02:16.017Z,91.26
2018-09-21T14:03:21.800Z,91.35
2018-09-21T14:04:27.246Z,91.58
2018-09-21T14:05:31.794Z,91.05
2018-09-21T14:06:36.832Z,91.70
2018-09-21T14:07:42.592Z,91.66
2018-09-21T14:08:49.402Z,91.61
2018-09-21T14:09:54.447Z,91.92
2018-09-21T14:11:00.890Z,91.76
2018-09-21T14:12:05.477Z,91.71
2018-09-21T14:13:10.015Z,91.77
2018-09-21T14:14:15.439Z,91.22
2018-09-21T14:15:19.948Z,91.06
2018-09-21T14:16:24.979Z,91.45
2018-09-21T14:17:29.559Z,91.49
2018-09-21T14:18:34.208Z,90.76
2018-09-21T14:19:39.396Z,91.26
2018-09-21T14:20:44.953Z,90.21
2018-09-21T14:21:49.676Z,90.44
2018-09-21T14:22:55.180Z,90.05
2018-09-21T14:23:59.644Z,88.85
2018-09-21T14:25:04.361Z,88.78
2018-09-21T14:26:09.480Z,88.89
2018-09-21T14:27:15.923Z,88.71
2018-09-21T14:28:21.445Z,88.81
2018-09-21T14:29:28.905Z,89.25
2018-09-21T14:30:33.499Z,88.77
2018-09-21T14:31:37.962Z,88.31
2018-09-21T14:32:42.475Z,88.10
2018-09-21T14:33:47.439Z,87.89
2018-09-21T14:34:53.101Z,87.85
2018-09-21T14:35:59.153Z,87.69
2018-09-21T14:37:05.225Z,87.94
2018-09-21T14:38:11.253Z,87.23
2018-09-21T14:39:16.298Z,87.65
2018-09-21T14:40:24.687Z,87.38
2018-09-21T14:41:29.188Z,87.38